sensor_id;sensor_type;location;lat;lon;timestamp;P1;durP1;ratioP1;P2;durP2;ratioP2
71366;SDS011;60030;52.274;8.040;2022-11-14T00:02:39;41.57;;;21.70;;
71366;SDS011;60030;52.274;8.040;2022-11-14T00:05:25;42.53;;;21.93;;
71366;SDS011;60030;52.274;8.040;2022-11-14T00:08:15;44.20;;;22.63;;
71366;SDS011;60030;52.274;8.040;2022-11-14T00:11:03;46.40;;;23.13;;
71366;SDS011;60030;52.274;8.040;2022-11-14T00:13:50;41.07;;;20.23;;
71366;SDS011;60030;52.274;8.040;2022-11-14T00:16:35;43.30;;;20.90;;
71366;SDS011;60030;52.274;8.040;2022-11-14T00:19:21;41.93;;;21.87;;
71366;SDS011;60030;52.274;8.040;2022-11-14T00:22:06;46.23;;;22.57;;
71366;SDS011;60030;52.274;8.040;2022-11-14T00:24:52;46.60;;;23.63;;
71366;SDS011;60030;52.274;8.040;2022-11-14T00:27:37;44.97;;;21.87;;
71366;SDS011;60030;52.274;8.040;2022-11-14T00:30:24;42.03;;;21.03;;
71366;SDS011;60030;52.274;8.040;2022-11-14T00:33:10;43.17;;;20.90;;
71366;SDS011;60030;52.274;8.040;2022-11-14T00:35:56;42.70;;;20.73;;
71366;SDS011;60030;52.274;8.040;2022-11-14T00:38:42;43.97;;;20.87;;
71366;SDS011;60030;52.274;8.040;2022-11-14T00:41:27;43.87;;;21.37;;
71366;SDS011;60030;52.274;8.040;2022-11-14T00:44:13;42.00;;;21.33;;
71366;SDS011;60030;52.274;8.040;2022-11-14T00:47:00;40.93;;;21.20;;
71366;SDS011;60030;52.274;8.040;2022-11-14T00:49:45;44.13;;;21.90;;
71366;SDS011;60030;52.274;8.040;2022-11-14T00:52:31;47.07;;;23.20;;
71366;SDS011;60030;52.274;8.040;2022-11-14T00:55:16;42.80;;;21.40;;
71366;SDS011;60030;52.274;8.040;2022-11-14T00:58:02;40.00;;;21.73;;
71366;SDS011;60030;52.274;8.040;2022-11-14T01:00:47;46.30;;;21.70;;
71366;SDS011;60030;52.274;8.040;2022-11-14T01:03:34;41.63;;;21.00;;
71366;SDS011;60030;52.274;8.040;2022-11-14T01:06:20;42.53;;;20.23;;
71366;SDS011;60030;52.274;8.040;2022-11-14T01:09:05;44.83;;;21.73;;
71366;SDS011;60030;52.274;8.040;2022-11-14T01:11:51;44.53;;;20.97;;
71366;SDS011;60030;52.274;8.040;2022-11-14T01:14:37;35.37;;;19.77;;
71366;SDS011;60030;52.274;8.040;2022-11-14T01:17:23;37.67;;;19.33;;
71366;SDS011;60030;52.274;8.040;2022-11-14T01:20:12;42.43;;;21.30;;
71366;SDS011;60030;52.274;8.040;2022-11-14T01:22:58;40.57;;;19.47;;
71366;SDS011;60030;52.274;8.040;2022-11-14T01:25:44;36.03;;;19.40;;
71366;SDS011;60030;52.274;8.040;2022-11-14T01:28:29;39.10;;;19.33;;
71366;SDS011;60030;52.274;8.040;2022-11-14T01:31:16;41.80;;;20.57;;
71366;SDS011;60030;52.274;8.040;2022-11-14T01:34:02;36.83;;;18.40;;
71366;SDS011;60030;52.274;8.040;2022-11-14T01:36:50;39.43;;;19.07;;
71366;SDS011;60030;52.274;8.040;2022-11-14T01:39:36;41.57;;;19.67;;
71366;SDS011;60030;52.274;8.040;2022-11-14T01:42:21;38.60;;;19.67;;
71366;SDS011;60030;52.274;8.040;2022-11-14T01:48:36;36.33;;;19.10;;
71366;SDS011;60030;52.274;8.040;2022-11-14T01:51:26;37.67;;;18.70;;
71366;SDS011;60030;52.274;8.040;2022-11-14T01:54:17;37.67;;;18.90;;
71366;SDS011;60030;52.274;8.040;2022-11-14T01:57:06;40.60;;;19.00;;
71366;SDS011;60030;52.274;8.040;2022-11-14T01:59:54;35.47;;;18.43;;
71366;SDS011;60030;52.274;8.040;2022-11-14T02:02:45;36.03;;;18.57;;
71366;SDS011;60030;52.274;8.040;2022-11-14T02:05:31;37.30;;;18.77;;
71366;SDS011;60030;52.274;8.040;2022-11-14T02:08:17;37.87;;;19.50;;
71366;SDS011;60030;52.274;8.040;2022-11-14T02:11:07;32.37;;;17.77;;
71366;SDS011;60030;52.274;8.040;2022-11-14T02:13:54;39.87;;;19.53;;
71366;SDS011;60030;52.274;8.040;2022-11-14T02:16:40;37.40;;;18.83;;
71366;SDS011;60030;52.274;8.040;2022-11-14T02:19:38;38.33;;;19.07;;
71366;SDS011;60030;52.274;8.040;2022-11-14T02:22:26;38.23;;;19.03;;
71366;SDS011;60030;52.274;8.040;2022-11-14T02:25:13;37.87;;;18.33;;
71366;SDS011;60030;52.274;8.040;2022-11-14T02:28:01;32.40;;;17.83;;
71366;SDS011;60030;52.274;8.040;2022-11-14T02:30:48;38.43;;;18.83;;
71366;SDS011;60030;52.274;8.040;2022-11-14T02:33:33;38.63;;;18.50;;
71366;SDS011;60030;52.274;8.040;2022-11-14T02:36:19;36.67;;;19.13;;
71366;SDS011;60030;52.274;8.040;2022-11-14T02:39:05;35.10;;;17.63;;
71366;SDS011;60030;52.274;8.040;2022-11-14T02:41:51;38.90;;;18.57;;
71366;SDS011;60030;52.274;8.040;2022-11-14T02:44:37;41.20;;;19.33;;
71366;SDS011;60030;52.274;8.040;2022-11-14T02:47:23;35.20;;;17.90;;
71366;SDS011;60030;52.274;8.040;2022-11-14T02:50:09;38.23;;;18.10;;
71366;SDS011;60030;52.274;8.040;2022-11-14T02:52:55;37.33;;;17.60;;
71366;SDS011;60030;52.274;8.040;2022-11-14T02:55:41;35.00;;;18.50;;
71366;SDS011;60030;52.274;8.040;2022-11-14T02:58:27;32.73;;;17.30;;
71366;SDS011;60030;52.274;8.040;2022-11-14T03:01:12;34.90;;;18.37;;
71366;SDS011;60030;52.274;8.040;2022-11-14T03:03:58;34.83;;;17.77;;
71366;SDS011;60030;52.274;8.040;2022-11-14T03:06:43;35.63;;;17.57;;
71366;SDS011;60030;52.274;8.040;2022-11-14T03:09:29;33.77;;;17.23;;
71366;SDS011;60030;52.274;8.040;2022-11-14T03:12:16;39.27;;;18.10;;
71366;SDS011;60030;52.274;8.040;2022-11-14T03:15:03;33.10;;;16.87;;
71366;SDS011;60030;52.274;8.040;2022-11-14T03:17:49;33.77;;;17.60;;
71366;SDS011;60030;52.274;8.040;2022-11-14T03:20:34;37.47;;;18.73;;
71366;SDS011;60030;52.274;8.040;2022-11-14T03:23:20;31.17;;;17.03;;
71366;SDS011;60030;52.274;8.040;2022-11-14T03:26:06;35.47;;;18.07;;
71366;SDS011;60030;52.274;8.040;2022-11-14T03:28:55;33.80;;;17.37;;
71366;SDS011;60030;52.274;8.040;2022-11-14T03:31:40;36.47;;;17.67;;
71366;SDS011;60030;52.274;8.040;2022-11-14T03:34:26;33.60;;;17.93;;
71366;SDS011;60030;52.274;8.040;2022-11-14T03:37:12;32.93;;;17.43;;
71366;SDS011;60030;52.274;8.040;2022-11-14T03:39:57;38.13;;;18.43;;
71366;SDS011;60030;52.274;8.040;2022-11-14T03:42:43;33.93;;;17.43;;
71366;SDS011;60030;52.274;8.040;2022-11-14T03:45:30;29.40;;;17.03;;
71366;SDS011;60030;52.274;8.040;2022-11-14T03:48:16;34.63;;;17.67;;
71366;SDS011;60030;52.274;8.040;2022-11-14T03:51:02;33.70;;;17.70;;
71366;SDS011;60030;52.274;8.040;2022-11-14T03:53:47;31.83;;;17.23;;
71366;SDS011;60030;52.274;8.040;2022-11-14T03:56:33;31.87;;;16.70;;
71366;SDS011;60030;52.274;8.040;2022-11-14T03:59:18;34.23;;;18.20;;
71366;SDS011;60030;52.274;8.040;2022-11-14T04:02:05;31.37;;;17.07;;
71366;SDS011;60030;52.274;8.040;2022-11-14T04:04:51;30.70;;;17.23;;
71366;SDS011;60030;52.274;8.040;2022-11-14T04:07:37;32.40;;;17.87;;
71366;SDS011;60030;52.274;8.040;2022-11-14T04:10:22;33.83;;;17.77;;
71366;SDS011;60030;52.274;8.040;2022-11-14T04:13:08;31.73;;;16.80;;
71366;SDS011;60030;52.274;8.040;2022-11-14T04:15:53;34.53;;;17.23;;
71366;SDS011;60030;52.274;8.040;2022-11-14T04:18:41;33.30;;;16.90;;
71366;SDS011;60030;52.274;8.040;2022-11-14T04:21:26;34.90;;;17.30;;
71366;SDS011;60030;52.274;8.040;2022-11-14T04:24:12;31.20;;;16.00;;
71366;SDS011;60030;52.274;8.040;2022-11-14T04:26:57;35.23;;;16.60;;
71366;SDS011;60030;52.274;8.040;2022-11-14T04:29:43;30.03;;;15.60;;
71366;SDS011;60030;52.274;8.040;2022-11-14T04:32:28;30.07;;;16.40;;
71366;SDS011;60030;52.274;8.040;2022-11-14T04:35:16;28.73;;;15.93;;
71366;SDS011;60030;52.274;8.040;2022-11-14T04:38:01;30.87;;;16.87;;
71366;SDS011;60030;52.274;8.040;2022-11-14T04:40:47;31.83;;;17.00;;
71366;SDS011;60030;52.274;8.040;2022-11-14T04:43:34;27.23;;;15.60;;
71366;SDS011;60030;52.274;8.040;2022-11-14T04:46:20;28.20;;;16.03;;
71366;SDS011;60030;52.274;8.040;2022-11-14T04:49:06;30.47;;;16.17;;
71366;SDS011;60030;52.274;8.040;2022-11-14T04:51:53;32.00;;;16.83;;
71366;SDS011;60030;52.274;8.040;2022-11-14T04:54:39;32.37;;;16.40;;
71366;SDS011;60030;52.274;8.040;2022-11-14T04:57:25;31.53;;;16.23;;
71366;SDS011;60030;52.274;8.040;2022-11-14T05:00:11;32.33;;;16.27;;
71366;SDS011;60030;52.274;8.040;2022-11-14T05:02:57;31.87;;;16.20;;
71366;SDS011;60030;52.274;8.040;2022-11-14T05:05:43;27.47;;;16.13;;
71366;SDS011;60030;52.274;8.040;2022-11-14T05:08:31;30.53;;;16.40;;
71366;SDS011;60030;52.274;8.040;2022-11-14T05:11:17;30.60;;;16.13;;
71366;SDS011;60030;52.274;8.040;2022-11-14T05:14:04;30.77;;;16.17;;
71366;SDS011;60030;52.274;8.040;2022-11-14T05:16:49;31.97;;;16.87;;
71366;SDS011;60030;52.274;8.040;2022-11-14T05:19:35;29.33;;;17.67;;
71366;SDS011;60030;52.274;8.040;2022-11-14T05:22:20;28.67;;;15.97;;
71366;SDS011;60030;52.274;8.040;2022-11-14T05:25:08;34.47;;;18.07;;
71366;SDS011;60030;52.274;8.040;2022-11-14T05:27:54;32.70;;;17.07;;
71366;SDS011;60030;52.274;8.040;2022-11-14T05:30:40;33.77;;;16.27;;
71366;SDS011;60030;52.274;8.040;2022-11-14T05:33:25;29.07;;;15.17;;
71366;SDS011;60030;52.274;8.040;2022-11-14T05:36:11;38.07;;;17.50;;
71366;SDS011;60030;52.274;8.040;2022-11-14T05:38:58;29.70;;;15.27;;
71366;SDS011;60030;52.274;8.040;2022-11-14T05:41:45;26.13;;;15.50;;
71366;SDS011;60030;52.274;8.040;2022-11-14T05:44:31;26.73;;;14.73;;
71366;SDS011;60030;52.274;8.040;2022-11-14T05:47:16;28.33;;;15.53;;
71366;SDS011;60030;52.274;8.040;2022-11-14T05:50:02;25.20;;;13.90;;
71366;SDS011;60030;52.274;8.040;2022-11-14T05:52:48;29.53;;;15.40;;
71366;SDS011;60030;52.274;8.040;2022-11-14T05:55:33;29.63;;;14.87;;
71366;SDS011;60030;52.274;8.040;2022-11-14T05:58:20;28.03;;;14.83;;
71366;SDS011;60030;52.274;8.040;2022-11-14T06:01:07;29.57;;;15.43;;
71366;SDS011;60030;52.274;8.040;2022-11-14T06:03:54;25.80;;;14.87;;
71366;SDS011;60030;52.274;8.040;2022-11-14T06:06:40;30.10;;;15.23;;
71366;SDS011;60030;52.274;8.040;2022-11-14T06:09:25;25.60;;;14.10;;
71366;SDS011;60030;52.274;8.040;2022-11-14T06:12:11;28.43;;;14.83;;
71366;SDS011;60030;52.274;8.040;2022-11-14T06:14:58;27.77;;;15.27;;
71366;SDS011;60030;52.274;8.040;2022-11-14T06:17:43;25.27;;;13.67;;
71366;SDS011;60030;52.274;8.040;2022-11-14T06:20:29;28.50;;;15.07;;
71366;SDS011;60030;52.274;8.040;2022-11-14T06:23:15;29.27;;;14.73;;
71366;SDS011;60030;52.274;8.040;2022-11-14T06:26:01;29.73;;;14.63;;
71366;SDS011;60030;52.274;8.040;2022-11-14T06:28:48;24.03;;;13.93;;
71366;SDS011;60030;52.274;8.040;2022-11-14T06:31:35;27.47;;;15.30;;
71366;SDS011;60030;52.274;8.040;2022-11-14T06:34:21;27.50;;;14.40;;
71366;SDS011;60030;52.274;8.040;2022-11-14T06:37:06;26.57;;;14.57;;
71366;SDS011;60030;52.274;8.040;2022-11-14T06:39:52;27.80;;;14.60;;
71366;SDS011;60030;52.274;8.040;2022-11-14T06:42:37;32.47;;;16.03;;
71366;SDS011;60030;52.274;8.040;2022-11-14T06:45:23;32.83;;;15.83;;
71366;SDS011;60030;52.274;8.040;2022-11-14T06:48:10;27.97;;;15.10;;
71366;SDS011;60030;52.274;8.040;2022-11-14T06:50:55;26.27;;;13.50;;
71366;SDS011;60030;52.274;8.040;2022-11-14T06:53:42;27.90;;;15.07;;
71366;SDS011;60030;52.274;8.040;2022-11-14T06:56:28;29.23;;;15.03;;
71366;SDS011;60030;52.274;8.040;2022-11-14T06:59:13;25.33;;;14.23;;
71366;SDS011;60030;52.274;8.040;2022-11-14T07:01:59;28.47;;;14.63;;
71366;SDS011;60030;52.274;8.040;2022-11-14T07:04:46;24.73;;;14.33;;
71366;SDS011;60030;52.274;8.040;2022-11-14T07:07:31;35.97;;;15.20;;
71366;SDS011;60030;52.274;8.040;2022-11-14T07:10:17;28.87;;;14.93;;
71366;SDS011;60030;52.274;8.040;2022-11-14T07:13:02;28.13;;;14.83;;
71366;SDS011;60030;52.274;8.040;2022-11-14T07:15:48;32.63;;;15.47;;
71366;SDS011;60030;52.274;8.040;2022-11-14T07:18:35;53.77;;;17.90;;
71366;SDS011;60030;52.274;8.040;2022-11-14T07:21:22;48.33;;;16.33;;
71366;SDS011;60030;52.274;8.040;2022-11-14T07:24:07;44.93;;;15.90;;
71366;SDS011;60030;52.274;8.040;2022-11-14T07:26:53;33.73;;;15.20;;
71366;SDS011;60030;52.274;8.040;2022-11-14T07:29:39;29.00;;;14.33;;
71366;SDS011;60030;52.274;8.040;2022-11-14T07:32:24;27.43;;;15.13;;
71366;SDS011;60030;52.274;8.040;2022-11-14T07:35:10;27.23;;;14.37;;
71366;SDS011;60030;52.274;8.040;2022-11-14T07:38:01;36.03;;;16.30;;
71366;SDS011;60030;52.274;8.040;2022-11-14T07:40:53;43.57;;;16.00;;
71366;SDS011;60030;52.274;8.040;2022-11-14T07:43:39;33.07;;;15.73;;
71366;SDS011;60030;52.274;8.040;2022-11-14T07:46:25;28.47;;;14.93;;
71366;SDS011;60030;52.274;8.040;2022-11-14T07:49:10;29.17;;;15.27;;
71366;SDS011;60030;52.274;8.040;2022-11-14T07:51:56;28.23;;;14.53;;
71366;SDS011;60030;52.274;8.040;2022-11-14T07:54:43;29.57;;;15.43;;
71366;SDS011;60030;52.274;8.040;2022-11-14T07:57:28;32.37;;;15.30;;
71366;SDS011;60030;52.274;8.040;2022-11-14T08:00:14;32.33;;;14.43;;
71366;SDS011;60030;52.274;8.040;2022-11-14T08:03:00;31.67;;;16.17;;
71366;SDS011;60030;52.274;8.040;2022-11-14T08:05:46;30.63;;;15.10;;
71366;SDS011;60030;52.274;8.040;2022-11-14T08:08:31;27.43;;;14.40;;
71366;SDS011;60030;52.274;8.040;2022-11-14T08:11:19;27.03;;;14.83;;
71366;SDS011;60030;52.274;8.040;2022-11-14T08:14:24;27.93;;;15.53;;
71366;SDS011;60030;52.274;8.040;2022-11-14T08:17:10;28.50;;;14.97;;
71366;SDS011;60030;52.274;8.040;2022-11-14T08:19:56;27.90;;;14.90;;
71366;SDS011;60030;52.274;8.040;2022-11-14T08:22:41;27.53;;;14.43;;
71366;SDS011;60030;52.274;8.040;2022-11-14T08:25:27;26.53;;;14.60;;
71366;SDS011;60030;52.274;8.040;2022-11-14T08:28:14;27.20;;;14.53;;
71366;SDS011;60030;52.274;8.040;2022-11-14T08:30:59;27.73;;;15.60;;
71366;SDS011;60030;52.274;8.040;2022-11-14T08:33:46;28.37;;;15.63;;
71366;SDS011;60030;52.274;8.040;2022-11-14T08:36:33;26.90;;;14.83;;
71366;SDS011;60030;52.274;8.040;2022-11-14T08:39:18;26.93;;;15.07;;
71366;SDS011;60030;52.274;8.040;2022-11-14T08:42:04;33.03;;;15.50;;
71366;SDS011;60030;52.274;8.040;2022-11-14T08:44:51;26.27;;;13.90;;
71366;SDS011;60030;52.274;8.040;2022-11-14T08:47:36;27.77;;;14.47;;
71366;SDS011;60030;52.274;8.040;2022-11-14T08:50:22;27.57;;;14.67;;
71366;SDS011;60030;52.274;8.040;2022-11-14T08:53:08;30.17;;;15.37;;
71366;SDS011;60030;52.274;8.040;2022-11-14T08:55:53;26.00;;;14.10;;
71366;SDS011;60030;52.274;8.040;2022-11-14T08:58:39;30.17;;;15.40;;
71366;SDS011;60030;52.274;8.040;2022-11-14T09:01:25;25.70;;;14.20;;
71366;SDS011;60030;52.274;8.040;2022-11-14T09:04:11;30.73;;;15.80;;
71366;SDS011;60030;52.274;8.040;2022-11-14T09:06:57;29.47;;;16.00;;
71366;SDS011;60030;52.274;8.040;2022-11-14T09:09:42;25.00;;;13.30;;
71366;SDS011;60030;52.274;8.040;2022-11-14T09:12:28;25.73;;;15.03;;
71366;SDS011;60030;52.274;8.040;2022-11-14T09:15:13;29.70;;;14.93;;
71366;SDS011;60030;52.274;8.040;2022-11-14T09:18:00;23.83;;;14.50;;
71366;SDS011;60030;52.274;8.040;2022-11-14T09:20:46;28.27;;;14.07;;
71366;SDS011;60030;52.274;8.040;2022-11-14T09:23:31;27.00;;;15.57;;
71366;SDS011;60030;52.274;8.040;2022-11-14T09:26:17;25.93;;;13.80;;
71366;SDS011;60030;52.274;8.040;2022-11-14T09:29:03;24.10;;;13.80;;
71366;SDS011;60030;52.274;8.040;2022-11-14T09:31:50;24.17;;;14.27;;
71366;SDS011;60030;52.274;8.040;2022-11-14T09:34:39;22.67;;;13.93;;
71366;SDS011;60030;52.274;8.040;2022-11-14T09:37:28;25.70;;;13.57;;
71366;SDS011;60030;52.274;8.040;2022-11-14T09:40:13;24.77;;;12.93;;
71366;SDS011;60030;52.274;8.040;2022-11-14T09:43:06;21.53;;;13.53;;
71366;SDS011;60030;52.274;8.040;2022-11-14T09:46:08;24.30;;;13.77;;
71366;SDS011;60030;52.274;8.040;2022-11-14T09:49:02;25.13;;;13.87;;
71366;SDS011;60030;52.274;8.040;2022-11-14T09:51:55;22.77;;;13.63;;
71366;SDS011;60030;52.274;8.040;2022-11-14T09:54:46;24.97;;;14.67;;
71366;SDS011;60030;52.274;8.040;2022-11-14T09:57:37;26.60;;;13.90;;
71366;SDS011;60030;52.274;8.040;2022-11-14T10:00:25;27.10;;;15.00;;
71366;SDS011;60030;52.274;8.040;2022-11-14T10:03:15;22.20;;;14.30;;
71366;SDS011;60030;52.274;8.040;2022-11-14T10:09:27;24.50;;;14.20;;
71366;SDS011;60030;52.274;8.040;2022-11-14T10:12:25;25.00;;;14.30;;
71366;SDS011;60030;52.274;8.040;2022-11-14T10:15:18;22.40;;;14.37;;
71366;SDS011;60030;52.274;8.040;2022-11-14T10:18:12;26.63;;;13.80;;
71366;SDS011;60030;52.274;8.040;2022-11-14T10:21:23;22.60;;;13.17;;
71366;SDS011;60030;52.274;8.040;2022-11-14T10:24:29;24.37;;;14.03;;
71366;SDS011;60030;52.274;8.040;2022-11-14T10:27:27;20.93;;;12.77;;
71366;SDS011;60030;52.274;8.040;2022-11-14T10:30:17;21.80;;;13.57;;
71366;SDS011;60030;52.274;8.040;2022-11-14T10:33:12;21.50;;;12.77;;
71366;SDS011;60030;52.274;8.040;2022-11-14T10:36:09;20.97;;;12.73;;
71366;SDS011;60030;52.274;8.040;2022-11-14T10:39:04;23.33;;;13.60;;
71366;SDS011;60030;52.274;8.040;2022-11-14T10:41:58;20.43;;;12.33;;
71366;SDS011;60030;52.274;8.040;2022-11-14T10:44:48;20.50;;;13.93;;
71366;SDS011;60030;52.274;8.040;2022-11-14T10:47:38;23.83;;;12.80;;
71366;SDS011;60030;52.274;8.040;2022-11-14T10:50:32;22.97;;;13.43;;
71366;SDS011;60030;52.274;8.040;2022-11-14T10:53:24;18.70;;;12.70;;
71366;SDS011;60030;52.274;8.040;2022-11-14T10:56:13;22.73;;;13.07;;
71366;SDS011;60030;52.274;8.040;2022-11-14T10:59:00;20.70;;;13.13;;
71366;SDS011;60030;52.274;8.040;2022-11-14T11:01:52;21.13;;;12.60;;
71366;SDS011;60030;52.274;8.040;2022-11-14T11:04:39;19.67;;;12.87;;
71366;SDS011;60030;52.274;8.040;2022-11-14T11:07:25;18.57;;;11.80;;
71366;SDS011;60030;52.274;8.040;2022-11-14T11:10:29;20.40;;;12.27;;
71366;SDS011;60030;52.274;8.040;2022-11-14T11:13:34;20.03;;;12.57;;
71366;SDS011;60030;52.274;8.040;2022-11-14T11:16:27;19.10;;;12.40;;
71366;SDS011;60030;52.274;8.040;2022-11-14T11:19:14;21.57;;;12.67;;
71366;SDS011;60030;52.274;8.040;2022-11-14T11:22:22;19.13;;;12.63;;
71366;SDS011;60030;52.274;8.040;2022-11-14T11:25:24;22.57;;;11.93;;
71366;SDS011;60030;52.274;8.040;2022-11-14T11:28:11;19.87;;;12.53;;
71366;SDS011;60030;52.274;8.040;2022-11-14T11:30:59;18.37;;;11.87;;
71366;SDS011;60030;52.274;8.040;2022-11-14T11:33:47;19.90;;;11.60;;
71366;SDS011;60030;52.274;8.040;2022-11-14T11:36:34;19.30;;;11.70;;
71366;SDS011;60030;52.274;8.040;2022-11-14T11:39:34;18.13;;;11.37;;
71366;SDS011;60030;52.274;8.040;2022-11-14T11:42:25;15.97;;;11.00;;
71366;SDS011;60030;52.274;8.040;2022-11-14T11:45:18;18.23;;;11.60;;
71366;SDS011;60030;52.274;8.040;2022-11-14T11:48:07;18.17;;;11.87;;
71366;SDS011;60030;52.274;8.040;2022-11-14T11:51:00;16.50;;;10.77;;
71366;SDS011;60030;52.274;8.040;2022-11-14T11:53:50;15.87;;;10.57;;
71366;SDS011;60030;52.274;8.040;2022-11-14T11:56:42;17.03;;;11.20;;
71366;SDS011;60030;52.274;8.040;2022-11-14T11:59:32;16.13;;;10.47;;
71366;SDS011;60030;52.274;8.040;2022-11-14T12:02:22;16.63;;;11.03;;
71366;SDS011;60030;52.274;8.040;2022-11-14T12:05:12;16.83;;;11.17;;
71366;SDS011;60030;52.274;8.040;2022-11-14T12:08:01;16.97;;;11.47;;
71366;SDS011;60030;52.274;8.040;2022-11-14T12:10:50;17.33;;;11.20;;
71366;SDS011;60030;52.274;8.040;2022-11-14T12:13:47;17.03;;;11.40;;
71366;SDS011;60030;52.274;8.040;2022-11-14T12:16:58;15.57;;;11.43;;
71366;SDS011;60030;52.274;8.040;2022-11-14T12:26:29;16.67;;;10.67;;
71366;SDS011;60030;52.274;8.040;2022-11-14T12:29:33;14.23;;;10.23;;
71366;SDS011;60030;52.274;8.040;2022-11-14T12:32:32;14.67;;;10.43;;
71366;SDS011;60030;52.274;8.040;2022-11-14T12:35:23;15.23;;;10.33;;
71366;SDS011;60030;52.274;8.040;2022-11-14T12:38:13;14.87;;;9.93;;
71366;SDS011;60030;52.274;8.040;2022-11-14T12:41:03;13.07;;;8.70;;
71366;SDS011;60030;52.274;8.040;2022-11-14T12:43:50;11.53;;;8.37;;
71366;SDS011;60030;52.274;8.040;2022-11-14T12:49:57;14.17;;;9.40;;
71366;SDS011;60030;52.274;8.040;2022-11-14T12:53:01;12.93;;;9.17;;
71366;SDS011;60030;52.274;8.040;2022-11-14T12:55:53;13.73;;;9.20;;
71366;SDS011;60030;52.274;8.040;2022-11-14T13:08:41;13.33;;;8.57;;
71366;SDS011;60030;52.274;8.040;2022-11-14T13:11:38;12.73;;;9.50;;
71366;SDS011;60030;52.274;8.040;2022-11-14T13:14:51;14.10;;;9.13;;
71366;SDS011;60030;52.274;8.040;2022-11-14T13:18:01;11.30;;;8.30;;
71366;SDS011;60030;52.274;8.040;2022-11-14T13:21:15;11.93;;;8.10;;
71366;SDS011;60030;52.274;8.040;2022-11-14T13:24:21;12.53;;;9.00;;
71366;SDS011;60030;52.274;8.040;2022-11-14T13:30:19;12.63;;;8.90;;
71366;SDS011;60030;52.274;8.040;2022-11-14T13:33:44;14.47;;;9.60;;
71366;SDS011;60030;52.274;8.040;2022-11-14T13:36:33;14.43;;;9.17;;
71366;SDS011;60030;52.274;8.040;2022-11-14T13:39:26;14.70;;;9.50;;
71366;SDS011;60030;52.274;8.040;2022-11-14T13:42:24;14.50;;;9.70;;
71366;SDS011;60030;52.274;8.040;2022-11-14T13:45:30;11.93;;;8.43;;
71366;SDS011;60030;52.274;8.040;2022-11-14T13:51:50;15.27;;;9.50;;
71366;SDS011;60030;52.274;8.040;2022-11-14T13:54:37;11.53;;;8.53;;
71366;SDS011;60030;52.274;8.040;2022-11-14T13:57:32;12.63;;;8.73;;
71366;SDS011;60030;52.274;8.040;2022-11-14T14:00:30;11.63;;;8.60;;
71366;SDS011;60030;52.274;8.040;2022-11-14T14:03:40;14.90;;;9.53;;
71366;SDS011;60030;52.274;8.040;2022-11-14T14:06:42;15.57;;;9.97;;
71366;SDS011;60030;52.274;8.040;2022-11-14T14:09:41;14.70;;;9.47;;
71366;SDS011;60030;52.274;8.040;2022-11-14T14:12:38;13.80;;;9.37;;
71366;SDS011;60030;52.274;8.040;2022-11-14T14:15:40;17.93;;;9.60;;
71366;SDS011;60030;52.274;8.040;2022-11-14T14:18:35;14.30;;;10.07;;
71366;SDS011;60030;52.274;8.040;2022-11-14T14:21:31;13.70;;;9.30;;
71366;SDS011;60030;52.274;8.040;2022-11-14T14:24:29;13.40;;;9.17;;
71366;SDS011;60030;52.274;8.040;2022-11-14T14:27:24;15.27;;;9.13;;
71366;SDS011;60030;52.274;8.040;2022-11-14T14:30:16;14.97;;;9.17;;
71366;SDS011;60030;52.274;8.040;2022-11-14T14:33:06;14.10;;;9.57;;
71366;SDS011;60030;52.274;8.040;2022-11-14T14:35:56;12.97;;;9.47;;
71366;SDS011;60030;52.274;8.040;2022-11-14T14:38:41;13.47;;;9.47;;
71366;SDS011;60030;52.274;8.040;2022-11-14T14:41:29;12.83;;;8.80;;
71366;SDS011;60030;52.274;8.040;2022-11-14T14:44:18;12.17;;;8.80;;
71366;SDS011;60030;52.274;8.040;2022-11-14T14:47:13;12.40;;;9.33;;
71366;SDS011;60030;52.274;8.040;2022-11-14T14:50:02;14.20;;;8.87;;
71366;SDS011;60030;52.274;8.040;2022-11-14T14:52:56;15.40;;;9.33;;
71366;SDS011;60030;52.274;8.040;2022-11-14T14:55:49;12.37;;;9.37;;
71366;SDS011;60030;52.274;8.040;2022-11-14T14:58:36;13.00;;;9.53;;
71366;SDS011;60030;52.274;8.040;2022-11-14T15:01:23;16.40;;;10.10;;
71366;SDS011;60030;52.274;8.040;2022-11-14T15:04:15;13.93;;;8.73;;
71366;SDS011;60030;52.274;8.040;2022-11-14T15:07:03;14.40;;;9.23;;
71366;SDS011;60030;52.274;8.040;2022-11-14T15:09:52;13.93;;;8.77;;
71366;SDS011;60030;52.274;8.040;2022-11-14T15:12:39;13.90;;;9.87;;
71366;SDS011;60030;52.274;8.040;2022-11-14T15:15:26;14.30;;;9.23;;
71366;SDS011;60030;52.274;8.040;2022-11-14T15:18:15;12.90;;;9.43;;
71366;SDS011;60030;52.274;8.040;2022-11-14T15:21:12;13.27;;;9.03;;
71366;SDS011;60030;52.274;8.040;2022-11-14T15:24:02;13.33;;;9.10;;
71366;SDS011;60030;52.274;8.040;2022-11-14T15:27:01;16.77;;;10.37;;
71366;SDS011;60030;52.274;8.040;2022-11-14T15:29:49;12.13;;;9.33;;
71366;SDS011;60030;52.274;8.040;2022-11-14T15:32:36;15.50;;;9.83;;
71366;SDS011;60030;52.274;8.040;2022-11-14T15:35:33;14.20;;;9.50;;
71366;SDS011;60030;52.274;8.040;2022-11-14T15:38:20;13.37;;;9.20;;
71366;SDS011;60030;52.274;8.040;2022-11-14T15:41:18;15.57;;;9.13;;
71366;SDS011;60030;52.274;8.040;2022-11-14T15:44:05;16.10;;;10.00;;
71366;SDS011;60030;52.274;8.040;2022-11-14T15:47:16;15.87;;;10.20;;
71366;SDS011;60030;52.274;8.040;2022-11-14T15:50:04;13.37;;;9.40;;
71366;SDS011;60030;52.274;8.040;2022-11-14T15:53:13;14.63;;;9.17;;
71366;SDS011;60030;52.274;8.040;2022-11-14T15:56:06;14.53;;;9.03;;
71366;SDS011;60030;52.274;8.040;2022-11-14T15:58:56;19.43;;;9.53;;
71366;SDS011;60030;52.274;8.040;2022-11-14T16:01:42;19.90;;;12.30;;
71366;SDS011;60030;52.274;8.040;2022-11-14T16:04:31;19.20;;;11.10;;
71366;SDS011;60030;52.274;8.040;2022-11-14T16:07:18;13.90;;;9.43;;
71366;SDS011;60030;52.274;8.040;2022-11-14T16:10:08;14.17;;;9.50;;
71366;SDS011;60030;52.274;8.040;2022-11-14T16:12:59;14.00;;;9.57;;
71366;SDS011;60030;52.274;8.040;2022-11-14T16:15:45;15.60;;;10.57;;
71366;SDS011;60030;52.274;8.040;2022-11-14T16:18:31;17.23;;;11.40;;
71366;SDS011;60030;52.274;8.040;2022-11-14T16:21:17;14.90;;;10.40;;
71366;SDS011;60030;52.274;8.040;2022-11-14T16:24:03;15.13;;;10.20;;
71366;SDS011;60030;52.274;8.040;2022-11-14T16:26:49;14.37;;;9.47;;
71366;SDS011;60030;52.274;8.040;2022-11-14T16:29:35;12.57;;;9.57;;
71366;SDS011;60030;52.274;8.040;2022-11-14T16:32:21;14.77;;;10.00;;
71366;SDS011;60030;52.274;8.040;2022-11-14T16:35:09;14.33;;;9.53;;
71366;SDS011;60030;52.274;8.040;2022-11-14T16:37:57;13.77;;;9.13;;
71366;SDS011;60030;52.274;8.040;2022-11-14T16:40:43;13.77;;;9.20;;
71366;SDS011;60030;52.274;8.040;2022-11-14T16:43:28;15.77;;;8.83;;
71366;SDS011;60030;52.274;8.040;2022-11-14T16:46:14;14.23;;;8.77;;
71366;SDS011;60030;52.274;8.040;2022-11-14T16:49:01;13.50;;;8.80;;
71366;SDS011;60030;52.274;8.040;2022-11-14T16:51:47;11.47;;;8.60;;
71366;SDS011;60030;52.274;8.040;2022-11-14T16:54:33;20.03;;;11.10;;
71366;SDS011;60030;52.274;8.040;2022-11-14T16:57:19;16.90;;;10.47;;
71366;SDS011;60030;52.274;8.040;2022-11-14T17:00:06;13.07;;;9.83;;
71366;SDS011;60030;52.274;8.040;2022-11-14T17:02:53;13.73;;;9.40;;
71366;SDS011;60030;52.274;8.040;2022-11-14T17:05:42;13.23;;;8.80;;